• Join FlightAware (Why Join?)
  • Login
  • US Flag 
08:14PM EDT


 

Airport Tracker/Info


-or-


 

Live Flight TrackerFlight Track Log ✈ UAL6858 ✈ 24-Jun-2013 ✈ KEWR - KINT

Flight Track Log - Related Links

Times and Time Zones

All times are in EDT time to prevent confusion due to time zone crossing. See the UAL6858 flight status page for this flight to view local times or setup timezone preferences in your user account.

Time Position Orientation Groundspeed Altitude Reporting Facility
EDT Latitude Longitude Course Direction KTS MPH feet Rate Location/Type
09:17PM 40.6750 -74.1776 205° Southwest 177 204 1,500  Level FlightAware ADS-B
09:17PM 40.6707 -74.1781 185° South 184 212 1,700 2,640 Climbing FlightAware ADS-B
09:17PM 40.6591 -74.1780 180° South 205 236 2,300 2,820 Climbing FlightAware ADS-B
09:17PM 40.6550 -74.1784 184° South 209 241 2,500 2,640 Climbing FlightAware ADS-B
09:17PM 40.6505 -74.1794 190° South 213 245 2,700 3,000 Climbing FlightAware ADS-B
09:17PM 40.6452 -74.1818 199° South 219 252 3,000 3,240 Climbing FlightAware ADS-B
09:18PM 40.6403 -74.1847 204° Southwest 225 259 3,300 3,300 Climbing FlightAware ADS-B
09:18PM 40.6370 -74.1874 212° Southwest 228 262 3,500 3,420 Climbing FlightAware ADS-B
09:18PM 40.6343 -74.1904 220° Southwest 232 267 3,700 3,420 Climbing FlightAware ADS-B
09:18PM 40.6320 -74.1937 227° Southwest 234 269 3,900 3,960 Climbing FlightAware ADS-B
09:18PM 40.6301 -74.1972 234° Southwest 235 270 4,100 3,600 Climbing FlightAware ADS-B
09:18PM 40.6267 -74.2060 243° Southwest 238 274 4,500 3,780 Climbing FlightAware ADS-B
09:18PM 40.6247 -74.2121 247° West 239 275 4,800 4,980 Climbing FlightAware ADS-B
09:18PM 40.6241 -74.2141 248° West 240 276 5,000 4,260 Climbing FlightAware ADS-B
09:18PM 40.6225 -74.2206 252° West 240 276 5,300 4,260 Climbing FlightAware ADS-B
09:18PM 40.6219 -74.2239 257° West 242 278 5,500 6,000 Climbing FlightAware ADS-B
09:18PM 40.6210 -74.2304 260° West 242 278 5,900 4,800 Climbing FlightAware ADS-B
09:18PM 40.6202 -74.2384 262° West 244 281 6,300 4,320 Climbing FlightAware ADS-B
09:18PM 40.6197 -74.2462 265° West 248 285 6,700 5,100 Climbing FlightAware ADS-B
09:18PM 40.6195 -74.2490 265° West 248 285 6,900 4,800 Climbing FlightAware ADS-B
09:19PM 40.6183 -74.2689 265° West 251 289 7,900 4,500 Climbing FlightAware ADS-B
09:19PM 40.6180 -74.2727 264° West 252 290 8,100 4,800 Climbing FlightAware ADS-B
09:19PM 40.6166 -74.2925 265° West 255 293 9,100 4,500 Climbing FlightAware ADS-B
09:19PM 40.6163 -74.2974 265° West 257 296 9,300 4,620 Climbing FlightAware ADS-B
09:19PM 40.6157 -74.3050 264° West 249 287 9,800 4,680 Climbing FlightAware ADS-B
09:19PM 40.6128 -74.3410 264° West 263 303 11,500 3,720 Climbing FlightAware ADS-B
09:20PM 40.6094 -74.3912 265° West 296 341 13,100 2,700 Climbing FlightAware ADS-B
09:20PM 40.6051 -74.4493 264° West 340 391 14,200 1,920 Climbing FlightAware ADS-B
09:21PM 40.6008 -74.5033 264° West 378 435 14,900 1,800 Climbing FlightAware ADS-B
09:21PM 40.5991 -74.5156 260° West 384 442 15,100 1,380 Climbing FlightAware ADS-B
09:21PM 40.5955 -74.5334 255° West 399 459 15,200 1,260 Climbing FlightAware ADS-B
09:21PM 40.5915 -74.5482 250° West 405 466 15,400 2,820 Climbing FlightAware ADS-B
09:22PM 40.5634 -74.6197 243° Southwest 421 484 17,000 3,180 Climbing FlightAware ADS-B
09:22PM 40.5342 -74.6915 242° Southwest 424 488 18,800 3,060 Climbing FlightAware ADS-B
09:23PM 40.5059 -74.7612 242° Southwest 434 499 20,200 2,340 Climbing FlightAware ADS-B
09:23PM 40.4768 -74.8327 242° Southwest 449 517 21,200 2,040 Climbing FlightAware ADS-B
09:24PM 40.4469 -74.9061 242° Southwest 457 526 22,300 2,040 Climbing FlightAware ADS-B
09:24PM 40.4385 -74.9262 241° Southwest 462 532 22,500 2,280 Climbing FlightAware ADS-B
09:24PM 40.4175 -74.9693 237° Southwest 464 534 23,300 2,280 Climbing FlightAware ADS-B
09:24PM 40.4011 -74.9974 233° Southwest 469 540 23,700 1,920 Climbing FlightAware ADS-B
09:25PM 40.3566 -75.0610 227° Southwest 478 550 24,700 1,980 Climbing FlightAware ADS-B
09:25PM 40.3109 -75.1249 227° Southwest 482 555 25,700 1,860 Climbing FlightAware ADS-B
09:26PM 40.2649 -75.1893 227° Southwest 483 556 26,600 2,040 Climbing FlightAware ADS-B
09:26PM 40.2182 -75.2545 227° Southwest 480 552 27,800 2,340 Climbing FlightAware ADS-B
09:27PM 40.1724 -75.3182 227° Southwest 475 547 29,000 2,160 Climbing FlightAware ADS-B
09:27PM 40.1277 -75.3805 227° Southwest 471 542 30,000 960 Climbing FlightAware ADS-B
09:28PM 40.0825 -75.4433 227° Southwest 468 539 30,000  Level FlightAware ADS-B
09:28PM 40.0378 -75.5055 227° Southwest 466 536 30,000  Level FlightAware ADS-B
09:29PM 39.9921 -75.5686 227° Southwest 467 537 30,000  Level FlightAware ADS-B
09:29PM 39.9472 -75.6306 227° Southwest 470 541 30,000  Level FlightAware ADS-B
09:30PM 39.9186 -75.6704 227° Southwest 472 543 30,000  Level FlightAware ADS-B
09:30PM 39.8719 -75.7444 231° Southwest 472 543 30,000  Level FlightAware ADS-B
09:31PM 39.8266 -75.8169 231° Southwest 471 542 30,000  Level FlightAware ADS-B
09:31PM 39.7845 -75.8840 231° Southwest 473 544 30,000  Level FlightAware ADS-B
09:32PM 39.7421 -75.9517 231° Southwest 473 544 30,000  Level FlightAware ADS-B
09:32PM 39.6910 -76.0328 231° Southwest 471 542 30,000  Level FlightAware ADS-B
09:33PM 39.6485 -76.1000 231° Southwest 467 537 30,000  Level FlightAware ADS-B
09:34PM 39.5924 -76.1884 231° Southwest 466 536 30,000  Level FlightAware ADS-B
09:34PM 39.5504 -76.2534 230° Southwest 470 541 30,000  Level FlightAware ADS-B
09:35PM 39.5067 -76.3203 230° Southwest 470 541 30,000  Level FlightAware ADS-B
09:35PM 39.4644 -76.3849 230° Southwest 469 540 30,000  Level FlightAware ADS-B
09:36PM 39.4216 -76.4517 230° Southwest 468 539 30,000  Level FlightAware ADS-B
09:36PM 39.3796 -76.5182 231° Southwest 468 539 30,000  Level FlightAware ADS-B
09:37PM 39.3372 -76.5853 231° Southwest 469 540 30,000  Level FlightAware ADS-B
09:37PM 39.2927 -76.6553 231° Southwest 471 542 30,000  Level FlightAware ADS-B
09:38PM 39.2492 -76.7233 230° Southwest 472 543 30,000  Level FlightAware ADS-B
09:38PM 39.2045 -76.7929 230° Southwest 476 548 30,000  Level FlightAware ADS-B
09:39PM 39.1622 -76.8588 230° Southwest 479 551 30,000  Level FlightAware ADS-B
09:39PM 39.1137 -76.9341 230° Southwest 479 551 30,000  Level FlightAware ADS-B
09:40PM 39.0678 -77.0049 230° Southwest 481 554 30,000  Level FlightAware ADS-B
09:40PM 39.0481 -77.0322 227° Southwest 484 557 30,000  Level FlightAware ADS-B
09:41PM 38.9967 -77.0906 221° Southwest 488 562 30,000  Level FlightAware ADS-B
09:41PM 38.9422 -77.1507 221° Southwest 489 563 30,000  Level FlightAware ADS-B
09:42PM 38.8808 -77.2180 220° Southwest 490 564 30,000  Level FlightAware ADS-B
09:42PM 38.8223 -77.2822 221° Southwest 491 565 30,000  Level FlightAware ADS-B
09:43PM 38.7450 -77.3670 221° Southwest 490 564 30,000  Level FlightAware
09:44PM 38.6760 -77.4420 220° Southwest 490 564 30,000  Level FlightAware
09:45PM 38.5990 -77.5250 220° Southwest 493 567 30,000  Level FlightAware
09:45PM 38.5737 -77.5524 220° Southwest 494 568 30,000  Level FlightAware ADS-B
09:45PM 38.5196 -77.6108 220° Southwest 494 568 30,000  Level FlightAware ADS-B
09:46PM 38.4660 -77.6687 220° Southwest 493 567 30,000  Level FlightAware ADS-B
09:47PM 38.3850 -77.7570 221° Southwest 493 567 30,000  Level FlightAware
09:47PM 38.3649 -77.7778 219° Southwest 493 567 30,000  Level FlightAware ADS-B
09:47PM 38.3095 -77.8373 220° Southwest 495 570 30,000  Level FlightAware ADS-B
09:48PM 38.2567 -77.8938 220° Southwest 495 570 30,000  Level FlightAware ADS-B
09:49PM 38.1630 -77.9940 220° Southwest 492 566 30,000  Level FlightAware
09:49PM 38.0880 -78.0740 220° Southwest 491 565 30,000  Level FlightAware
09:50PM 38.0190 -78.1490 221° Southwest 490 564 30,000  Level FlightAware
09:51PM 37.9520 -78.2430 228° Southwest 486 559 30,000  Level FlightAware
09:51PM 37.8920 -78.3300 229° Southwest 487 560 30,000  Level FlightAware
09:52PM 37.8280 -78.4210 228° Southwest 486 559 30,000  Level FlightAware
09:53PM 37.7650 -78.5120 229° Southwest 486 559 30,000 -420 Level FlightAware
09:54PM 37.7130 -78.5860 228° Southwest 464 534 29,500 -2,820 Descending FlightAware
09:54PM 37.6470 -78.6810 229° Southwest 466 536 26,100 -3,840 Descending FlightAware
09:55PM 37.5890 -78.7630 228° Southwest 449 517 24,000 -2,940 Descending FlightAware
09:56PM 37.5340 -78.8420 229° Southwest 433 498 22,100 -1,440 Descending FlightAware
09:56PM 37.4760 -78.9250 229° Southwest 427 491 22,000 -120 Descending FlightAware
09:57PM 37.4310 -78.9870 228° Southwest 427 491 22,000  Level FlightAware
09:58PM 37.3720 -79.0710 229° Southwest 22,000  Level FlightAware
09:59PM 37.3070 -79.1650 229° Southwest 422 486 22,000  Level FlightAware
09:59PM 37.2470 -79.2480 228° Southwest 436 502 22,000  Level FlightAware
10:00PM 37.1860 -79.3300 227° Southwest 436 502 22,000  Level FlightAware
10:01PM 37.1400 -79.3910 227° Southwest 436 502 22,000  Level FlightAware
10:01PM 37.0970 -79.4490 227° Southwest 436 502 22,000  Level FlightAware
10:02PM 37.0430 -79.5210 227° Southwest 436 502 22,000  Level FlightAware
10:03PM 37.0000 -79.5790 227° Southwest 436 502 22,000  Level FlightAware
10:09PM 36.5242 -80.0000 180° South  Level FlightAware Approximate
10:10PM 36.4101 -79.9989 172° South  Level FlightAware Approximate
10:11PM 36.2968 -79.9833 180° South  Level FlightAware Approximate
10:12PM 36.1827 -79.9816 175° South  Level FlightAware Approximate
10:13PM 36.0689 -79.9702 175° South  Level FlightAware Approximate
10:14PM 36.0667 -80.0520 270° West  Level FlightAware Approximate
10:15PM 36.1095 -80.1808 310° West  Level FlightAware Approximate
10:16PM 36.1333 -80.2167 310° West  Level FlightAware Approximate
10:17PM 36.1337 -80.2220 310° West  Level Estimated
10:18PM 36.1333 -80.2167 310° West  Level FlightAware Approximate
10:19PM 36.1337 -80.2220 310° West  Level Estimated
10:20PM 36.1333 -80.2167 310° West  Level FlightAware Approximate
10:21PM 36.1337 -80.2220 310° West  Level Estimated
10:22PM 36.1333 -80.2167 310° West  Level FlightAware Approximate